Cherokee, IA

7:27 PM CDT on July 30, 2014 (GMT -0500)
Orange City Municipal (KORC) Elev 1414 ft | 42.99 °N, 96.06 °W | Change Station

Current weather conditions updated 12 minutes ago

Scattered Clouds
Scattered Clouds
77 °F
Feels Like 77 °F
N
0
Wind Variable Wind from North

Tomorrow is forecast to be nearly the same temperature as today. Isolated thunderstorms tomorrow night.

Today
High -- | Low -- °F
--% Chance of Precip.
Yesterday
High -- | Low -- °F
Precip. -- in
6:11 AM 8:44 PM
Waxing Crescent, 14% visible
Pressure 30.11 in
Visibility 10.0 miles
Clouds Scattered Clouds 5500 ft
Dew Point 52 °F
Humidity 41%
Rainfall 0.00 in
Snow Depth Not available.
UV 1 out of 12
Pollen 5.70 out of 12
Air Quality Not available.
Flu Activity Not available.
METAR KORC 310015Z AUTO 00000KT 10SM SCT055 25/11 A3011 RMK AO2

More Conditions Fewer Conditions

Pressure 30.11 in
Visibility 10.0 miles
Clouds Scattered Clouds 5500 ft
Dew Point 52 °F
Humidity 41%
Rainfall 0.00 in
Snow Depth Not available.
UV 1 out of 12
Pollen 5.70 out of 12
Air Quality Not available.
Flu Activity Not available.
METAR KORC 310015Z AUTO 00000KT 10SM SCT055 25/11 A3011 RMK AO2

More Conditions Fewer Conditions

10-Day Weather Forecast

Almanac

Astronomy

Jul. 30, 2014 Rise Set
Actual Time 6:11 AM CDT 8:44 PM CDT
Civil Twilight 5:39 AM CDT 9:17 PM CDT
Nautical Twilight 4:59 AM CDT 9:57 PM CDT
Astronomical Twilight 4:13 AM CDT 10:42 PM CDT
Moon 9:50 AM CDT (7/30) 10:21 PM CDT (7/30)
Length of Visible Light 15h 37m
Length of Day
14h 33m
Tomorrow will be 2m 10s shorter.
Waxing Crescent, 14% of the Moon is Illuminated
Today
Waxing Crescent
Aug 3
First Quarter
Aug 10
Full
Aug 17
Last Quarter
Aug 25
New

Today's Extremes

State Highs State Lows

Community

WunderPhotos

Upload Photos

1,739,259 photos uploaded!

Nearby

Snow Depth

Station Depth Elevation
No new snow has been reported.

Earthquake Activity

City Distance Mag. Time & Date
No recent earthquake activity has been reported nearby.
Minimum magnitude displayed is 2.5.

Coastal Water Temperatures

Place Temperature
No Stations Reporting

Nearby Weather Stations

Station Location Temp. Heat Index Dew Point Humidity Wind Precip. Elev Updated Type
Ricklefs Home, Storm Lake, IA 79.7 °F 80 °F 59 °F 49% NW  at  0.0 mph 0.00 in / hr 1414 ft 7:27 PM CDT Rapid Fire
MesoWest SHAGBARK HILLS , Correctionville, IA 76 °F 78 °F 56 °F 49% NNW  at  2 mph 0.00 in / hr 1399 ft 6:00 PM CDT MADIS

Show More Stations Show Fewer Stations